Item Display Status Humidity-temperature Sensor

Elevation Above Sea Level: 3 m

 

Deployed Sensor

  • Serial Number: 20066143
  • NDBC Property Number: 40494
  • Start Date: 12/6/2018 (16:32:05 Z)
  • End Date: Currently Active
Relative Humidity [%]     6 entries per hour
Showing data from 11/19/2019 (14:00:00 Z) to 11/18/2019 (00:00:01 Z)
Previous Next [ Day | 3-Days | 7-Days ]
First Last
Prev [ Day | 3-Days | 7-Days ] Next
First Last

Start Time:     :
End Time:     :     
Time (in GMT) :00 :50 :40 :30 :20 :10
Previous Next [ Day | 3-Days | 7-Days ]
First Last
Prev [ Day | 3-Days | 7-Days ] Next
First Last


123 => good data
MM => data is determined as missing
-- => data not received/configured
Back to Top Back to Top
11/19/2019 14:00 to 13:10 72.48 71.82 74.79 74.42 73.62 73.54
11/19/2019 13:00 to 12:10 72.38 70.59 74.34 75.95 74.19 73.25
11/19/2019 12:00 to 11:10 71.68 70.65 70.77 72.79 71.70 73.25
11/19/2019 11:00 to 10:10 73.43 72.57 72.19 70.86 72.52 73.02
11/19/2019 10:00 to 9:10 72.67 72.53 74.21 74.07 73.37 72.85
11/19/2019 09:00 to 8:10 72.61 73.91 72.71 70.26 72.67 72.96
11/19/2019 08:00 to 7:10 74.32 73.89 74.13 74.28 74.40 74.50
11/19/2019 07:00 to 6:10 74.90 74.55 73.72 73.23 72.48 73.60
11/19/2019 06:00 to 5:10 73.04 73.53 73.58 72.79 73.02 71.39
11/19/2019 05:00 to 4:10 72.65 73.82 75.18 74.75 73.95 74.07
11/19/2019 04:00 to 3:10 75.02 74.52 74.36 74.03 73.18 73.02
11/19/2019 03:00 to 2:10 73.04 73.39 72.79 73.49 73.27 73.89
11/19/2019 02:00 to 1:10 74.61 74.46 72.52 73.56 73.89 72.98
11/19/2019 01:00 to 0:10 71.27 71.04 70.83 70.71 72.15 72.94
11/19/2019 00:00 to 23:10 72.05 72.20 74.07 71.37 70.75 70.69
11/18/2019 23:00 to 22:10 70.81 70.77 70.59 71.78 72.26 72.46
11/18/2019 22:00 to 21:10 71.37 72.61 70.50 72.38 70.22 72.75
11/18/2019 21:00 to 20:10 72.38 73.12 73.60 74.57 73.68 72.50
11/18/2019 20:00 to 19:10 68.11 69.12 68.92 68.92 68.38 68.11
11/18/2019 19:00 to 18:10 67.76 65.99 68.22 67.76 66.47 67.50
11/18/2019 18:00 to 17:10 67.97 69.14 69.64 71.74 71.87 70.96
11/18/2019 17:00 to 16:10 72.98 73.89 74.50 77.29 79.45 78.93
11/18/2019 16:00 to 15:10 78.25 77.24 77.47 74.77 75.47 76.48
11/18/2019 15:00 to 14:10 76.05 75.39 76.89 76.21 75.88 77.00
11/18/2019 14:00 to 13:10 76.54 75.78 74.87 75.80 75.06 75.90
11/18/2019 13:00 to 12:10 75.62 74.26 75.51 76.19 75.53 75.58
11/18/2019 12:00 to 11:10 76.85 77.55 76.96 76.61 76.54 77.76
11/18/2019 11:00 to 10:10 77.86 78.44 77.45 76.71 76.46 76.73
11/18/2019 10:00 to 9:10 76.85 77.41 76.91 76.89 76.87 76.21
11/18/2019 09:00 to 8:10 75.41 75.74 75.06 75.41 75.72 74.40
11/18/2019 08:00 to 7:10 74.83 74.65 74.21 74.19 75.41 74.65
11/18/2019 07:00 to 6:10 73.93 74.42 73.97 74.40 73.56 72.65
11/18/2019 06:00 to 5:10 73.39 72.30 72.85 73.54 74.40 74.38
11/18/2019 05:00 to 4:10 73.93 73.06 72.65 73.91 73.45 73.47
11/18/2019 04:00 to 3:10 73.45 71.95 72.36 71.08 72.03 72.20
11/18/2019 03:00 to 2:10 71.39 71.58 71.08 70.50 70.96 71.41
11/18/2019 02:00 to 1:10 71.74 70.61 71.47 71.60 70.84 71.29
11/18/2019 01:00 to 0:10 70.73 69.99 71.21 69.15 67.68 69.15

 

 

 

Air Temperature [°C]     6 entries per hour
Showing data from 11/19/2019 (14:00:00 Z) to 11/18/2019 (00:00:01 Z)
Previous Next [ Day | 3-Days | 7-Days ]
First Last
Prev [ Day | 3-Days | 7-Days ] Next
First Last

Start Time:     :
End Time:     :     
Time (in GMT) :00 :50 :40 :30 :20 :10
Previous Next [ Day | 3-Days | 7-Days ]
First Last
Prev [ Day | 3-Days | 7-Days ] Next
First Last


123 => good data
MM => data is determined as missing
-- => data not received/configured
Back to Top Back to Top
11/19/2019 14:00 to 13:10 23.73 23.75 23.61 23.58 23.58 23.73
11/19/2019 13:00 to 12:10 23.71 23.68 23.58 23.53 23.50 23.51
11/19/2019 12:00 to 11:10 23.41 23.44 23.53 23.54 23.42 23.58
11/19/2019 11:00 to 10:10 23.52 23.51 23.60 23.57 23.51 23.48
11/19/2019 10:00 to 9:10 23.54 23.46 23.47 23.53 23.57 23.46
11/19/2019 09:00 to 8:10 23.43 23.52 23.68 23.57 23.49 23.47
11/19/2019 08:00 to 7:10 23.55 23.46 23.39 23.46 23.49 23.50
11/19/2019 07:00 to 6:10 23.68 23.63 23.52 23.66 23.61 23.65
11/19/2019 06:00 to 5:10 23.74 23.75 23.70 23.71 23.74 23.75
11/19/2019 05:00 to 4:10 23.70 23.67 23.78 23.86 23.70 23.80
11/19/2019 04:00 to 3:10 23.92 23.73 23.83 23.91 23.90 23.87
11/19/2019 03:00 to 2:10 23.91 23.91 23.77 23.85 23.85 23.83
11/19/2019 02:00 to 1:10 23.80 23.94 23.84 23.98 24.04 23.97
11/19/2019 01:00 to 0:10 24.00 24.02 24.13 24.29 24.20 24.09
11/19/2019 00:00 to 23:10 24.21 24.18 24.19 24.15 24.27 24.23
11/18/2019 23:00 to 22:10 24.28 24.29 24.15 24.08 24.07 24.08
11/18/2019 22:00 to 21:10 23.93 24.12 24.04 24.04 24.11 24.01
11/18/2019 21:00 to 20:10 23.94 23.91 24.02 23.99 23.97 24.13
11/18/2019 20:00 to 19:10 24.04 24.06 24.03 24.11 24.12 24.20
11/18/2019 19:00 to 18:10 24.18 24.21 24.18 24.12 24.13 24.28
11/18/2019 18:00 to 17:10 24.12 24.12 23.98 24.04 24.03 24.00
11/18/2019 17:00 to 16:10 23.94 23.87 23.67 23.55 23.26 23.24
11/18/2019 16:00 to 15:10 23.27 23.64 23.52 23.75 23.66 23.61
11/18/2019 15:00 to 14:10 23.46 23.46 23.53 23.64 23.65 23.46
11/18/2019 14:00 to 13:10 23.55 23.52 23.39 23.40 23.41 23.33
11/18/2019 13:00 to 12:10 23.43 23.33 23.32 23.28 23.37 23.36
11/18/2019 12:00 to 11:10 23.24 23.34 23.22 23.14 23.29 23.21
11/18/2019 11:00 to 10:10 23.33 23.23 23.24 23.32 23.22 23.23
11/18/2019 10:00 to 9:10 23.22 23.39 23.21 23.22 23.19 23.29
11/18/2019 09:00 to 8:10 23.23 23.22 23.27 23.25 23.34 23.26
11/18/2019 08:00 to 7:10 23.36 23.28 23.45 23.31 23.43 23.47
11/18/2019 07:00 to 6:10 23.41 23.59 23.41 23.62 23.56 23.35
11/18/2019 06:00 to 5:10 23.59 23.46 23.52 23.53 23.66 23.69
11/18/2019 05:00 to 4:10 23.68 23.63 23.52 23.67 23.69 23.72
11/18/2019 04:00 to 3:10 23.86 23.64 23.75 23.58 23.70 23.73
11/18/2019 03:00 to 2:10 23.76 23.75 23.67 23.66 23.79 23.80
11/18/2019 02:00 to 1:10 23.81 23.71 23.84 23.62 23.68 23.83
11/18/2019 01:00 to 0:10 23.74 23.70 23.86 23.97 23.96 23.92